CDT,Max TemperatureF,Mean TemperatureF,Min TemperatureF,Max Dew PointF,MeanDew PointF,Min DewpointF,Max Humidity, Mean Humidity, Min Humidity, Max Sea Level PressureIn, Mean Sea Level PressureIn, Min Sea Level PressureIn, Max VisibilityMiles, Mean VisibilityMiles, Min VisibilityMiles, Max Wind SpeedMPH, Mean Wind SpeedMPH, Max Gust SpeedMPH,PrecipitationIn, CloudCover, Events, WindDirDegrees
2012-8-1,94,75,55,71,60,54,100,70,40,29.96,29.88,29.76,10,8,1,32,7,44,0.05,0,Rain-Thunderstorm,223
2012-8-2,90,78,65,66,62,57,93,64,34,29.87,29.82,29.78,10,10,10,13,3,22,0.00,1,,320
2012-8-3,93,76,59,66,59,51,97,62,26,29.90,29.86,29.78,10,10,2,15,5,21,0.00,0,,125
2012-8-4,79,72,64,68,63,56,93,70,47,29.92,29.85,29.78,10,9,2,31,7,41,0.45,3,Rain-Thunderstorm,240
2012-8-5,77,67,56,58,51,45,84,61,38,30.15,30.08,29.89,10,10,10,17,8,23,0.00,0,,302
2012-8-6,85,69,52,61,54,51,100,66,32,30.13,30.06,29.93,10,9,0,16,5,20,0.00,0,Fog,232
2012-8-7,86,73,60,63,56,48,93,61,29,29.99,29.95,29.91,10,10,10,16,5,22,0.00,0,,335
2012-8-8,78,67,56,63,60,54,93,79,64,30.04,29.99,29.96,10,10,8,17,6,25,0.28,5,Rain,66
2012-8-9,72,64,56,63,59,54,93,82,70,30.05,29.99,29.95,10,10,3,23,5,30,0.35,7,Rain-Thunderstorm,55
2012-8-10,77,64,50,56,50,44,93,65,36,30.13,30.08,30.04,10,10,10,18,8,25,0.00,2,,12
2012-8-11,79,62,44,55,48,43,93,63,33,30.11,30.05,29.99,10,10,2,12,3,16,0.00,0,,337
2012-8-12,74,64,54,61,55,48,93,67,41,30.01,29.98,29.96,10,10,10,8,2,,0.00,3,,246
2012-8-13,78,69,59,65,61,57,100,79,58,30.01,29.97,29.93,10,9,0,24,4,33,0.57,5,Rain-Thunderstorm,228
2012-8-14,80,67,54,59,54,48,100,68,35,29.97,29.94,29.88,10,7,1,10,2,14,0.00,2,,295
2012-8-15,82,71,59,61,59,57,97,71,45,29.88,29.82,29.72,10,10,10,18,8,23,T,5,Rain,173
2012-8-16,70,66,62,65,54,49,84,70,55,30.00,29.84,29.70,10,10,10,23,13,30,0.01,7,,298
2012-8-17,73,61,49,49,45,40,86,60,33,30.07,30.03,29.99,10,10,10,15,6,24,0.00,0,,316
2012-8-18,77,62,47,56,48,43,93,62,31,30.03,29.99,29.93,10,10,6,20,4,28,0.06,2,Rain,275
2012-8-19,76,62,48,56,49,40,100,65,29,30.01,29.98,29.95,10,9,2,15,4,20,0.00,2,,357
2012-8-20,76,59,41,51,43,38,100,65,29,30.04,30.01,29.97,10,7,0,13,3,17,0.00,1,Fog,339
2012-8-21,81,65,48,51,47,44,93,61,28,30.08,30.04,30.01,10,10,10,14,4,18,0.00,0,,233
2012-8-22,86,67,48,59,52,46,93,63,32,30.03,29.99,29.93,10,10,2,21,5,25,0.00,0,,187
2012-8-23,85,74,63,63,58,54,84,61,37,29.94,29.90,29.82,10,10,10,13,7,17,0.01,1,,166
2012-8-24,87,77,66,67,63,57,73,61,48,29.89,29.86,29.84,10,10,10,21,12,28,0.10,3,Rain-Thunderstorm,188
2012-8-25,85,73,60,65,61,57,90,65,40,29.96,29.93,29.89,10,10,9,13,5,17,0.00,1,,214
2012-8-26,85,75,64,65,62,57,87,64,40,30.02,29.96,29.92,10,10,10,13,5,21,0.00,5,,242
2012-8-27,88,71,54,62,56,52,100,65,30,30.11,30.07,30.01,10,7,0,16,4,20,0.00,0,Fog,326
2012-8-28,80,67,53,63,58,53,100,77,54,30.17,30.11,30.02,10,7,1,10,4,13,0.18,2,Rain-Thunderstorm,83
2012-8-29,92,77,62,65,62,59,93,65,36,30.03,29.92,29.83,10,10,10,20,9,26,0.00,0,,147
2012-8-30,97,83,69,64,60,56,69,47,25,29.87,29.79,29.73,10,10,10,25,11,35,0.00,0,,208
2012-8-31,89,76,63,63,51,40,81,50,19,30.12,30.03,29.88,10,10,10,13,6,26,0.00,0,,20